Portada
METAR-TAF:

METAR-TAF

Aeropuertos :

Aeropuerto Internacional Hamad

Doha, Qatar

latitud: 25-16-23N, longitud: 51-36-29E, altitud: 4 m

Observación

El informe se hizo hace 54 minutos, a las 12:00 UTC
Viento 14 kt del norte-noreste
Temperatura 22°C
Humedad 53%
Presión 1015 hPa
Visibilidad 10 km o más
sin nubes por debajo de 1500 m y sin presencia de cumulonimbus.

METAR: OTHH 271200Z AUTO 03014KT CAVOK 22/12 Q1015 NOSIG

Hora: 15:54 (12:54 UTC)

Pronóstico

El informe se hizo hace 1 hora y 47 minutos, a las 11:07 UTC
Pronóstico válido del 27 a las 12 UTC al 28 a las 18 UTC
Viento 14 kt del norte-noreste
Visibilidad 10 km o más
sin nubes por debajo de 1500 m y sin presencia de cumulonimbus.
Evolucionando progresivamente
del 27 a las 14 UTC al 27 a las 16 UTC
Viento 9 kt del norte-noroeste

TAF: OTHH 271107Z 2712/2818 03014KT CAVOK BECMG 2714/2716 33009KT

Observaciones y pronósticos meteorológicos de más de 4000 aeropuertos (mensajes METAR y TAF).

Los puntos amarillos y rojos representan las estaciones disponibles.

Ponga el ratón en el punto deseado para ver el nombre de la estación.

Haga clic para ver las observaciones y los pronósticos meteorológicos.

Para cambiar el mapa : haga clic en los botones verdes con una cruz de color negro para hacer un zoom, en el botón verde con un guión para alejar o en las flechas verdes para mapas adyacentes.


METAR-TAF: